Time;durP1;ratioP1;P1;durP2;ratioP2;P2;SDS_P1;SDS_P2;PMS_P1;PMS_P2;Temp;Humidity;BMP_temperature;BMP_pressure;BME280_temperature;BME280_humidity;BME280_pressure;Samples;Min_cycle;Max_cycle;Signal;HPM_P1;HPM_P2
2022/04/22 00:03:09;;;;;;;15.48;7.90;;;;;;;8.71;100.00;101269.66;10349847;28;20026;-74
2022/04/22 00:08:10;;;;;;;15.93;7.25;;;;;;;8.63;100.00;101273.56;10347616;28;20503;-74
2022/04/22 00:13:10;;;;;;;17.45;8.68;;;;;;;8.50;100.00;101240.00;10323913;28;20035;-75
2022/04/22 00:18:10;;;;;;;16.35;6.85;;;;;;;8.55;100.00;101265.66;10323084;28;20117;-74
2022/04/22 00:23:11;;;;;;;18.98;7.50;;;;;;;8.34;100.00;101227.72;10308845;28;20039;-75
2022/04/22 00:28:11;;;;;;;17.55;8.27;;;;;;;8.40;100.00;101246.81;10309014;28;20026;-75
2022/04/22 00:33:12;;;;;;;12.07;7.78;;;;;;;8.33;100.00;101245.22;10308367;28;20042;-75
2022/04/22 00:38:12;;;;;;;19.38;7.95;;;;;;;8.26;100.00;101224.19;10306976;28;20034;-75
2022/04/22 00:43:40;;;;;;;17.10;7.65;;;;;;;8.27;100.00;101236.84;10305250;28;20053;-75
2022/04/22 00:48:40;;;;;;;13.43;8.25;;;;;;;8.15;100.00;101233.22;10305805;28;20037;-75
2022/04/22 00:53:41;;;;;;;19.42;8.40;;;;;;;8.02;100.00;101216.91;10306175;28;20196;-75
2022/04/22 00:58:43;;;;;;;16.15;8.70;;;;;;;7.87;100.00;101209.91;10292549;28;20030;-77
2022/04/22 01:14:23;;;;;;;15.80;9.10;;;;;;;7.67;100.00;101192.84;10319423;28;20047;-75
2022/04/22 01:19:24;;;;;;;16.05;7.57;;;;;;;7.63;100.00;101189.72;10321940;28;20035;-75
2022/04/22 01:24:25;;;;;;;20.98;8.85;;;;;;;7.59;100.00;101198.63;10322019;28;20046;-74
2022/04/22 01:29:26;;;;;;;13.07;8.18;;;;;;;6.93;100.00;101091.41;10306243;28;20066;-74
2022/04/22 01:34:27;;;;;;;16.38;8.05;;;;;;;7.55;100.00;101197.41;10320761;28;20035;-75
2022/04/22 01:39:29;;;;;;;17.80;6.97;;;;;;;7.54;100.00;101192.97;10304569;28;20030;-75
2022/04/22 01:44:29;;;;;;;16.58;7.93;;;;;;;7.48;100.00;101189.22;10303300;28;20035;-74
2022/04/22 01:49:30;;;;;;;17.55;7.50;;;;;;;7.06;100.00;101120.53;10305787;28;20410;-74
2022/04/22 01:54:30;;;;;;;15.85;7.05;;;;;;;7.23;100.00;101170.91;10305298;28;20042;-74
2022/04/22 01:59:31;;;;;;;15.32;6.55;;;;;;;7.24;100.00;101185.47;10305759;28;20039;-75
2022/04/22 02:04:32;;;;;;;11.77;6.47;;;;;;;7.23;100.00;101186.53;10304566;28;20038;-77
2022/04/22 02:09:32;;;;;;;11.98;6.25;;;;;;;7.07;100.00;101182.47;10311178;28;20030;-73
2022/04/22 02:14:33;;;;;;;11.02;5.88;;;;;;;7.08;100.00;101190.44;10348910;28;20113;-74
2022/04/22 02:19:34;;;;;;;14.13;6.03;;;;;;;7.03;100.00;101184.81;10352794;28;20114;-74
2022/04/22 02:24:34;;;;;;;10.18;6.32;;;;;;;6.91;100.00;101161.94;10353738;28;20376;-77
2022/04/22 02:29:37;;;;;;;8.40;5.30;;;;;;;6.83;100.00;101154.03;10319464;28;20026;-75
2022/04/22 02:34:37;;;;;;;9.48;5.70;;;;;;;6.90;100.00;101171.22;10351112;28;20034;-75
2022/04/22 02:39:38;;;;;;;13.45;6.55;;;;;;;6.84;100.00;101172.97;10349689;28;20030;-75
2022/04/22 02:49:57;;;;;;;8.98;5.10;;;;;;;6.62;100.00;101139.66;10352159;28;20066;-74
2022/04/22 02:54:57;;;;;;;13.98;5.93;;;;;;;6.67;100.00;101161.69;10350654;28;20034;-75
2022/04/22 02:59:58;;;;;;;11.45;5.70;;;;;;;6.69;100.00;101158.75;10351934;28;20037;-74
2022/04/22 03:04:58;;;;;;;12.40;5.72;;;;;;;6.58;100.00;101135.69;10351486;28;20034;-75
2022/04/22 03:09:59;;;;;;;8.55;4.95;;;;;;;6.66;100.00;101151.00;10351560;28;20041;-74
2022/04/22 03:15:00;;;;;;;11.40;5.45;;;;;;;6.58;100.00;101146.63;10321009;28;20073;-76
2022/04/22 03:20:00;;;;;;;10.48;5.43;;;;;;;6.55;100.00;101140.75;10337745;28;20034;-74
2022/04/22 03:25:01;;;;;;;9.40;4.75;;;;;;;6.49;100.00;101144.38;10349932;28;20038;-75
2022/04/22 03:30:02;;;;;;;11.18;5.30;;;;;;;6.38;100.00;101135.81;10349498;28;20042;-75
2022/04/22 03:35:03;;;;;;;7.78;5.00;;;;;;;6.40;100.00;101132.84;10349163;28;20037;-75
2022/04/22 03:40:05;;;;;;;10.43;5.53;;;;;;;6.30;100.00;101133.31;10349322;28;20034;-75
2022/04/22 03:45:06;;;;;;;10.00;5.43;;;;;;;6.11;100.00;101113.25;10347635;28;20065;-75
2022/04/22 03:50:07;;;;;;;9.60;5.82;;;;;;;6.18;100.00;101135.09;10350224;28;20041;-74
2022/04/22 03:55:08;;;;;;;10.20;6.32;;;;;;;6.02;100.00;101131.81;10349652;28;20030;-77
2022/04/22 04:00:09;;;;;;;11.70;5.53;;;;;;;5.85;100.00;101120.50;10348273;28;20030;-77
2022/04/22 04:05:10;;;;;;;8.70;5.18;;;;;;;5.89;100.00;101136.47;10347928;28;20588;-77
2022/04/22 04:26:08;;;;;;;9.52;5.75;;;;;;;5.68;100.00;101143.88;10308443;28;20038;-77
2022/04/22 04:31:08;;;;;;;12.32;5.40;;;;;;;5.58;100.00;101141.63;10307159;28;20037;-77
2022/04/22 04:36:09;;;;;;;14.23;6.32;;;;;;;5.66;100.00;101143.25;10289953;28;20031;-77
2022/04/22 04:41:12;;;;;;;10.85;5.70;;;;;;;5.62;100.00;101137.41;10313060;28;20274;-76
2022/04/22 04:46:13;;;;;;;11.73;6.45;;;;;;;5.63;100.00;101138.25;10338656;28;20042;-76
2022/04/22 04:51:13;;;;;;;8.18;5.18;;;;;;;5.64;100.00;101140.78;10288068;28;20039;-77
2022/04/22 04:56:14;;;;;;;11.60;5.40;;;;;;;5.68;100.00;101135.69;10307502;28;20030;-77
2022/04/22 05:01:14;;;;;;;8.70;5.82;;;;;;;5.62;100.00;101131.09;10321608;28;20039;-77
2022/04/22 05:06:15;;;;;;;11.75;5.22;;;;;;;5.60;100.00;101122.28;10305745;28;20045;-76
2022/04/22 05:11:15;;;;;;;8.45;4.97;;;;;;;5.65;100.00;101141.59;10307366;28;20046;-77
2022/04/22 05:16:16;;;;;;;9.55;5.10;;;;;;;5.59;100.00;101126.91;10304034;28;20043;-77
2022/04/22 05:21:16;;;;;;;8.38;4.70;;;;;;;5.64;100.00;101129.00;10321038;28;20055;-77
2022/04/22 05:26:17;;;;;;;9.23;4.60;;;;;;;5.61;100.00;101129.44;10306358;28;20035;-77
2022/04/22 05:36:36;;;;;;;9.13;4.82;;;;;;;5.85;100.00;101147.84;10307354;28;20031;-77
2022/04/22 05:41:36;;;;;;;8.40;4.25;;;;;;;6.07;100.00;101139.34;10312265;28;20046;-77
2022/04/22 05:46:37;;;;;;;10.40;4.93;;;;;;;6.32;100.00;101142.16;10328729;28;20041;-77
2022/04/22 05:51:37;;;;;;;7.55;4.00;;;;;;;6.65;100.00;101108.25;10354516;28;20026;-77
2022/04/22 05:56:38;;;;;;;7.03;4.07;;;;;;;7.07;100.00;101134.03;10353133;28;20022;-77
2022/04/22 06:01:38;;;;;;;7.35;3.55;;;;;;;7.38;100.00;101129.50;10353519;28;20026;-77
2022/04/22 06:06:39;;;;;;;6.53;3.53;;;;;;;7.65;100.00;101123.72;10353446;28;20041;-77
2022/04/22 06:11:40;;;;;;;5.95;3.72;;;;;;;7.86;100.00;101115.03;10309861;28;20039;-77
2022/04/22 06:16:41;;;;;;;5.32;3.08;;;;;;;8.04;100.00;101113.31;10311321;28;20055;-78
2022/04/22 06:21:41;;;;;;;8.77;3.20;;;;;;;8.36;100.00;101113.09;10312972;28;20046;-78
2022/04/22 06:26:42;;;;;;;5.03;3.13;;;;;;;8.59;100.00;101107.69;10313440;28;20499;-78
2022/04/22 06:31:42;;;;;;;6.45;2.90;;;;;;;8.63;100.00;101089.66;10313367;28;20034;-75
2022/04/22 06:36:43;;;;;;;5.38;2.78;;;;;;;8.97;100.00;101103.69;10313348;28;20034;-74
2022/04/22 06:47:04;;;;;;;2.88;2.08;;;;;;;8.94;100.00;101020.94;10309244;28;20058;-75
2022/04/22 06:52:06;;;;;;;8.45;3.15;;;;;;;9.73;100.00;101106.47;10311480;28;20030;-75
2022/04/22 06:57:07;;;;;;;6.20;2.55;;;;;;;9.92;100.00;101106.28;10310142;28;20118;-75
2022/04/22 07:02:09;;;;;;;3.10;2.08;;;;;;;10.17;100.00;101090.31;10311582;28;20039;-75
2022/04/22 07:07:10;;;;;;;5.43;2.78;;;;;;;10.34;100.00;101093.13;10311653;28;20066;-75
2022/04/22 07:12:10;;;;;;;5.95;2.47;;;;;;;10.22;100.00;101068.38;10312560;28;20533;-76
2022/04/22 07:17:12;;;;;;;3.47;2.25;;;;;;;10.39;100.00;101073.94;10347466;28;20070;-76
2022/04/22 07:22:13;;;;;;;4.43;2.80;;;;;;;10.56;100.00;101076.69;10349569;28;20045;-75
2022/04/22 07:27:13;;;;;;;6.65;2.58;;;;;;;10.75;100.00;101095.72;10378422;28;20022;-75
2022/04/22 07:32:14;;;;;;;9.63;3.05;;;;;;;10.87;100.00;101077.19;10389904;28;20026;-75
2022/04/22 07:37:15;;;;;;;4.63;2.47;;;;;;;11.01;100.00;101083.19;10390162;28;20045;-74
2022/04/22 07:42:20;;;;;;;6.60;3.17;;;;;;;10.87;100.00;101027.63;10384395;28;20046;-75
2022/04/22 07:47:22;;;;;;;6.57;2.85;;;;;;;11.33;100.00;101066.88;10366312;28;20027;-75
2022/04/22 07:52:23;;;;;;;7.70;2.58;;;;;;;11.54;100.00;101069.91;10342628;28;20553;-75
2022/04/22 07:57:24;;;;;;;5.28;2.20;;;;;;;11.57;100.00;101047.31;10353255;28;20526;-74
2022/04/22 08:02:24;;;;;;;5.07;2.75;;;;;;;11.84;100.00;101061.16;10367412;28;20078;-75
2022/04/22 08:07:25;;;;;;;4.55;2.10;;;;;;;11.68;100.00;101054.63;10345190;28;20458;-74
2022/04/22 08:12:25;;;;;;;6.05;2.30;;;;;;;11.88;100.00;101052.13;10348277;28;20035;-74
2022/04/22 08:17:26;;;;;;;8.18;2.55;;;;;;;12.09;100.00;101049.59;10346609;28;20057;-75
2022/04/22 08:22:26;;;;;;;8.95;2.67;;;;;;;12.23;100.00;101045.31;10330836;28;20044;-75
2022/04/22 08:27:28;;;;;;;6.03;1.90;;;;;;;12.23;100.00;101001.16;10348978;28;20031;-74
2022/04/22 08:32:29;;;;;;;5.00;1.80;;;;;;;12.72;98.47;101025.03;10331947;28;20050;-74
2022/04/22 08:37:29;;;;;;;3.20;1.95;;;;;;;12.93;96.47;101010.25;10348038;28;20038;-72
2022/04/22 08:42:30;;;;;;;3.88;2.13;;;;;;;13.02;93.73;101018.88;10346396;28;20104;-74
2022/04/22 08:52:54;;;;;;;6.15;2.40;;;;;;;13.16;91.02;100999.88;10307406;28;20033;-75
2022/04/22 08:57:55;;;;;;;6.80;2.92;;;;;;;13.28;91.34;100988.59;10331781;28;20034;-74
2022/04/22 09:02:56;;;;;;;5.95;1.88;;;;;;;13.62;91.29;100990.97;10386990;28;20514;-74
2022/04/22 09:07:56;;;;;;;5.65;2.22;;;;;;;13.88;89.39;100972.50;10377062;28;20049;-75
2022/04/22 09:12:57;;;;;;;7.22;3.13;;;;;;;14.17;90.65;100977.50;10367885;28;20026;-75
2022/04/22 09:18:00;;;;;;;4.72;1.95;;;;;;;14.35;86.95;100956.75;10386087;28;20050;-75
2022/04/22 09:23:00;;;;;;;6.72;2.65;;;;;;;14.58;85.55;100953.44;10368396;28;20049;-75
2022/04/22 09:28:08;;;;;;;6.30;2.25;;;;;;;14.41;86.29;100905.78;10382381;28;20053;-74
2022/04/22 09:33:09;;;;;;;5.05;2.33;;;;;;;14.82;86.75;100955.59;10363854;28;20045;-74
2022/04/22 09:43:36;;;;;;;5.40;2.80;;;;;;;15.23;84.08;100933.28;10361406;28;20038;-75
2022/04/22 09:48:46;;;;;;;8.05;2.92;;;;;;;15.22;83.56;100926.09;10385183;28;20064;-75
2022/04/22 09:53:48;;;;;;;6.05;2.45;;;;;;;15.60;84.16;100937.53;10385342;28;20098;-74
2022/04/22 09:58:48;;;;;;;12.38;3.05;;;;;;;15.71;82.80;100939.97;10378702;28;20045;-75
2022/04/22 10:03:49;;;;;;;6.22;2.38;;;;;;;15.82;79.75;100924.09;10382329;28;20026;-74
2022/04/22 10:08:49;;;;;;;5.93;2.53;;;;;;;15.91;79.29;100911.25;10363079;28;20038;-73
2022/04/22 10:13:50;;;;;;;6.75;3.13;;;;;;;16.08;78.06;100904.44;10365789;28;20029;-74
2022/04/22 10:18:50;;;;;;;5.10;2.90;;;;;;;16.32;75.89;100902.56;10377354;28;20049;-74
2022/04/22 10:23:52;;;;;;;6.13;3.17;;;;;;;16.49;77.27;100906.84;10379779;28;20077;-74
2022/04/22 10:28:52;;;;;;;6.38;2.53;;;;;;;16.89;78.44;100918.69;10363332;28;20097;-75
2022/04/22 10:33:53;;;;;;;5.03;2.60;;;;;;;16.88;76.39;100897.56;10386945;28;21052;-76
2022/04/22 10:38:53;;;;;;;5.85;2.47;;;;;;;17.21;73.30;100892.97;10375404;28;20030;-76
2022/04/22 10:49:14;;;;;;;9.70;2.60;;;;;;;17.29;72.11;100883.97;10368475;28;20093;-73
2022/04/22 10:54:15;;;;;;;7.90;3.58;;;;;;;17.23;70.06;100862.06;10389758;28;20054;-73
2022/04/22 10:59:15;;;;;;;4.68;2.50;;;;;;;17.57;70.69;100873.00;10373188;28;20014;-73
2022/04/22 11:04:19;;;;;;;4.57;3.20;;;;;;;17.88;70.48;100873.38;10351139;28;20038;-73
2022/04/22 11:09:26;;;;;;;9.38;3.67;;;;;;;17.93;70.43;100853.78;10347183;28;20390;-72
2022/04/22 11:14:28;;;;;;;8.18;3.35;;;;;;;18.24;70.47;100849.63;10336047;28;20065;-72
2022/04/22 11:19:29;;;;;;;4.95;3.17;;;;;;;18.29;68.31;100839.25;10347225;28;20046;-72
2022/04/22 11:24:31;;;;;;;6.80;3.40;;;;;;;18.46;69.32;100826.63;10332247;28;20045;-71
2022/04/22 11:29:32;;;;;;;7.15;3.30;;;;;;;18.61;67.84;100831.91;10348605;28;20097;-72
2022/04/22 11:34:43;;;;;;;5.97;3.00;;;;;;;19.01;67.96;100846.16;10348951;28;20034;-71
2022/04/22 11:39:46;;;;;;;8.15;3.58;;;;;;;19.06;65.12;100822.91;10339988;28;20045;-72
2022/04/22 11:45:06;;;;;;;8.82;2.83;;;;;;;19.24;63.97;100826.69;10315820;28;20049;-71
2022/04/22 11:50:07;;;;;;;6.30;2.97;;;;;;;19.20;63.19;100818.13;10346936;28;20030;-73
2022/04/22 11:55:08;;;;;;;9.13;3.45;;;;;;;19.85;62.84;100832.81;10331518;28;20033;-71
2022/04/22 12:05:34;;;;;;;8.27;3.63;;;;;;;20.76;59.74;100807.13;10349191;28;20053;-73
2022/04/22 12:10:35;;;;;;;9.10;3.85;;;;;;;21.21;59.73;100808.03;10349338;28;20022;-72
2022/04/22 12:15:39;;;;;;;9.52;3.80;;;;;;;21.84;56.58;100777.72;10336688;28;20054;-72
2022/04/22 12:20:40;;;;;;;8.02;4.10;;;;;;;21.96;55.98;100775.88;10346505;28;20455;-73
2022/04/22 12:25:52;;;;;;;10.05;3.72;;;;;;;22.43;55.91;100763.00;10314520;28;20038;-72
2022/04/22 12:30:53;;;;;;;5.53;3.40;;;;;;;23.16;54.32;100760.78;10346659;28;20118;-72
2022/04/22 12:36:05;;;;;;;8.43;3.67;;;;;;;23.23;55.39;100760.22;10344943;28;20102;-73
2022/04/22 12:41:17;;;;;;;7.00;4.82;;;;;;;23.34;54.28;100760.63;10345651;28;20453;-72
2022/04/22 12:52:15;;;;;;;5.70;3.75;;;;;;;23.07;53.25;100762.00;10385519;28;20129;-68
2022/04/22 12:57:18;;;;;;;6.90;3.83;;;;;;;22.97;53.98;100760.41;10380073;28;20042;-68
2022/04/22 13:02:19;;;;;;;8.00;4.53;;;;;;;22.01;55.08;100774.03;10385838;28;20341;-68
2022/04/22 13:07:19;;;;;;;8.50;4.53;;;;;;;20.48;58.19;100786.13;10386477;28;20034;-67
2022/04/22 13:12:20;;;;;;;6.45;4.13;;;;;;;18.95;61.19;100777.69;10381550;28;20076;-67
2022/04/22 13:17:21;;;;;;;7.60;4.45;;;;;;;18.70;62.37;100788.22;10385543;28;20046;-66
2022/04/22 13:22:22;;;;;;;8.50;4.30;;;;;;;19.05;61.79;100777.44;10385193;28;20033;-66
2022/04/22 13:27:22;;;;;;;14.05;4.15;;;;;;;19.60;61.45;100778.41;10386958;28;20026;-67
2022/04/22 13:32:23;;;;;;;8.73;4.55;;;;;;;19.05;62.15;100774.66;10385624;28;20092;-68
2022/04/22 13:37:23;;;;;;;9.73;4.32;;;;;;;19.66;61.63;100775.16;10384545;28;20026;-67
2022/04/22 13:42:24;;;;;;;7.65;4.10;;;;;;;20.80;60.05;100747.75;10379798;28;20033;-67
2022/04/22 13:52:43;;;;;;;9.38;3.83;;;;;;;21.66;56.50;100746.09;10365659;28;20030;-68
2022/04/22 13:57:44;;;;;;;12.85;5.53;;;;;;;20.71;57.35;100747.72;10369561;28;20034;-67
2022/04/22 14:02:44;;;;;;;8.52;5.05;;;;;;;20.43;57.35;100730.34;10385466;28;20037;-66
2022/04/22 14:07:45;;;;;;;11.20;4.38;;;;;;;21.32;56.44;100725.38;10386635;28;20041;-66
2022/04/22 14:12:46;;;;;;;11.65;4.35;;;;;;;21.75;54.92;100694.50;10392447;28;20018;-66
2022/04/22 14:17:46;;;;;;;11.52;4.15;;;;;;;21.77;53.56;100706.19;10390556;28;20060;-70
2022/04/22 14:22:47;;;;;;;6.45;3.90;;;;;;;20.13;56.57;100728.13;10388315;28;20038;-70
2022/04/22 14:27:47;;;;;;;9.25;4.85;;;;;;;19.51;58.09;100728.06;10375450;28;20021;-66
2022/04/22 14:32:48;;;;;;;10.15;3.50;;;;;;;20.68;57.17;100732.41;10392907;28;20034;-70
2022/04/22 14:37:48;;;;;;;9.93;3.65;;;;;;;21.64;54.15;100701.63;10374391;28;20030;-69
2022/04/22 14:42:50;;;;;;;8.90;4.00;;;;;;;22.22;52.73;100693.66;10387633;28;20030;-71
2022/04/22 14:47:51;;;;;;;5.22;3.58;;;;;;;21.13;53.82;100687.34;10356501;28;20037;-69
2022/04/22 14:52:52;;;;;;;5.07;3.10;;;;;;;20.31;55.44;100712.22;10349508;28;20029;-66
2022/04/22 14:57:52;;;;;;;11.07;4.03;;;;;;;19.18;56.86;100691.22;10350701;28;20039;-67
2022/04/22 15:02:52;;;;;;;9.50;3.42;;;;;;;18.68;58.97;100708.81;10349057;28;20051;-68
2022/04/22 15:07:54;;;;;;;4.05;3.05;;;;;;;20.15;58.35;100708.22;10349778;28;20030;-65
2022/04/22 15:12:54;;;;;;;7.00;3.05;;;;;;;22.00;54.46;100680.72;10349678;28;20033;-67
2022/04/22 15:28:33;;;;;;;5.97;2.78;;;;;;;23.53;50.13;100678.66;10348449;28;20033;-67
2022/04/22 15:33:34;;;;;;;6.47;3.33;;;;;;;24.03;48.86;100673.97;10349330;28;20254;-70
2022/04/22 15:38:36;;;;;;;10.18;2.88;;;;;;;24.68;47.87;100672.06;10347475;28;20038;-71
2022/04/22 15:43:39;;;;;;;8.48;3.20;;;;;;;22.28;50.43;100674.69;10353314;28;20065;-71
2022/04/22 15:48:39;;;;;;;6.35;3.25;;;;;;;20.51;54.36;100693.19;10323687;28;20035;-71
2022/04/22 15:53:40;;;;;;;7.10;3.20;;;;;;;20.85;54.44;100686.03;10343878;28;20058;-72
2022/04/22 15:58:45;;;;;;;8.80;3.63;;;;;;;22.60;51.19;100675.16;10333408;28;20026;-72
2022/04/22 16:03:51;;;;;;;8.77;3.67;;;;;;;23.15;50.67;100683.31;10329885;28;20043;-72
2022/04/22 16:08:52;;;;;;;5.88;3.15;;;;;;;21.24;53.03;100678.59;10307530;28;20046;-72
2022/04/22 16:19:11;;;;;;;3.65;2.38;;;;;;;23.25;49.63;100664.38;10306856;28;20077;-73
2022/04/22 16:24:13;;;;;;;15.68;3.10;;;;;;;23.35;49.74;100658.34;10324486;28;20039;-73
2022/04/22 16:29:19;;;;;;;5.85;3.08;;;;;;;22.44;49.72;100672.94;10341965;28;20078;-72
2022/04/22 16:34:20;;;;;;;4.80;1.60;;;;;;;22.60;50.20;100650.72;10307269;28;20064;-72
2022/04/22 16:39:21;;;;;;;5.10;1.88;;;;;;;23.02;49.23;100667.56;10321740;28;20042;-73
2022/04/22 16:44:21;;;;;;;7.03;2.33;;;;;;;24.21;48.82;100669.75;10310212;28;20403;-72
2022/04/22 16:49:24;;;;;;;4.57;2.70;;;;;;;24.19;48.11;100649.59;10315008;28;20031;-72
2022/04/22 16:54:25;;;;;;;6.80;1.70;;;;;;;23.10;47.96;100669.47;10306740;28;20074;-71
2022/04/22 16:59:25;;;;;;;5.25;1.52;;;;;;;22.39;49.39;100669.50;10336387;28;20042;-74
2022/04/22 17:04:26;;;;;;;4.03;1.63;;;;;;;20.26;51.34;100678.84;10336745;28;20038;-75
2022/04/22 17:09:27;;;;;;;4.80;1.42;;;;;;;18.42;56.67;100675.94;10328908;28;20042;-74
2022/04/22 17:25:10;;;;;;;7.05;1.88;;;;;;;16.20;63.53;100729.91;10326448;28;20040;-73
2022/04/22 17:30:12;;;;;;;4.70;1.58;;;;;;;15.83;64.85;100731.41;10318013;28;20050;-73
2022/04/22 17:35:13;;;;;;;6.97;2.20;;;;;;;15.73;66.95;100749.03;10320175;28;20038;-74
2022/04/22 17:40:15;;;;;;;5.32;2.10;;;;;;;15.63;67.53;100751.84;10328097;28;20383;-73
2022/04/22 17:45:15;;;;;;;5.82;2.42;;;;;;;15.74;68.07;100747.06;10318877;28;20042;-73
2022/04/22 17:50:16;;;;;;;3.95;2.20;;;;;;;15.89;67.95;100749.69;10341305;28;20026;-73
2022/04/22 17:55:18;;;;;;;8.02;2.35;;;;;;;15.81;68.16;100749.50;10336734;28;20092;-75
2022/04/22 18:00:19;;;;;;;6.72;2.35;;;;;;;15.68;69.53;100762.91;10348624;28;20036;-73
2022/04/22 18:05:21;;;;;;;9.25;3.47;;;;;;;15.47;69.69;100767.78;10352490;28;20044;-73
2022/04/22 18:10:23;;;;;;;15.43;2.92;;;;;;;15.24;71.45;100787.97;10352658;28;20066;-74
2022/04/22 18:20:43;;;;;;;6.30;3.05;;;;;;;14.60;74.50;100786.91;10351731;28;20038;-74
2022/04/22 18:25:44;;;;;;;6.95;3.53;;;;;;;14.24;75.70;100774.00;10341869;28;20038;-73
2022/04/22 18:30:44;;;;;;;9.48;3.35;;;;;;;14.03;77.95;100787.03;10350340;28;20022;-73
2022/04/22 18:35:45;;;;;;;11.20;3.38;;;;;;;13.65;78.96;100755.28;10351427;28;20030;-74
2022/04/22 18:40:46;;;;;;;5.97;3.05;;;;;;;13.80;80.55;100796.75;10352391;28;20049;-73
2022/04/22 18:45:47;;;;;;;6.75;3.33;;;;;;;13.74;82.62;100811.69;10333030;28;20061;-74
2022/04/22 18:50:48;;;;;;;8.82;3.63;;;;;;;13.71;82.20;100812.28;10350422;28;20066;-73
2022/04/22 18:55:49;;;;;;;6.75;3.20;;;;;;;13.66;83.79;100801.19;10349789;28;20094;-75
2022/04/22 19:00:50;;;;;;;8.98;3.55;;;;;;;13.71;83.85;100817.81;10350140;28;20038;-73
2022/04/22 19:05:50;;;;;;;6.25;3.85;;;;;;;13.59;85.01;100818.06;10351526;28;20034;-74
2022/04/22 19:10:53;;;;;;;21.33;4.78;;;;;;;13.30;85.15;100803.94;10317709;28;20034;-74
2022/04/22 19:15:54;;;;;;;8.40;4.00;;;;;;;13.31;87.04;100824.94;10322982;28;20094;-73
2022/04/22 19:20:55;;;;;;;8.02;3.78;;;;;;;13.33;87.08;100817.19;10310320;28;20063;-73
2022/04/22 19:25:56;;;;;;;11.05;3.42;;;;;;;13.27;88.09;100815.50;10307983;28;20034;-73
2022/04/22 19:30:56;;;;;;;8.60;3.75;;;;;;;13.40;88.77;100825.25;10292654;28;20030;-72
2022/04/22 19:35:56;;;;;;;6.32;3.90;;;;;;;13.04;88.40;100764.31;10309338;28;20042;-74
2022/04/22 19:40:57;;;;;;;11.25;4.47;;;;;;;13.42;88.65;100834.09;10337163;28;20038;-73
2022/04/22 19:46:01;;;;;;;10.55;4.30;;;;;;;13.41;89.43;100824.97;10346518;28;20049;-74
2022/04/22 19:51:02;;;;;;;7.03;3.60;;;;;;;13.33;89.62;100825.50;10347178;28;20031;-74
2022/04/22 19:56:02;;;;;;;12.07;4.43;;;;;;;13.37;89.86;100834.91;10346895;28;20026;-74
2022/04/22 20:01:03;;;;;;;9.23;3.65;;;;;;;13.31;90.26;100830.47;10346984;28;20068;-74
2022/04/22 20:06:04;;;;;;;7.18;3.88;;;;;;;13.35;90.17;100845.41;10348258;28;20045;-73
2022/04/22 20:11:04;;;;;;;8.05;3.55;;;;;;;13.29;91.53;100833.53;10347719;28;20026;-73
2022/04/22 20:16:05;;;;;;;10.77;4.32;;;;;;;13.28;90.65;100847.59;10345753;28;20047;-74
2022/04/22 20:21:05;;;;;;;8.05;3.70;;;;;;;13.22;91.16;100841.22;10347418;28;20073;-74
2022/04/22 20:26:07;;;;;;;11.02;3.80;;;;;;;13.21;91.74;100847.00;10346946;28;20042;-74
2022/04/22 20:31:08;;;;;;;5.97;3.38;;;;;;;13.16;92.89;100852.53;10347414;28;20027;-75
2022/04/22 20:41:27;;;;;;;7.22;3.40;;;;;;;13.05;94.04;100852.50;10346171;28;20049;-74
2022/04/22 20:46:28;;;;;;;8.10;3.90;;;;;;;12.99;93.56;100863.81;10338451;28;20501;-74
2022/04/22 20:51:31;;;;;;;8.70;4.20;;;;;;;12.77;93.99;100839.13;10305122;28;20098;-74
2022/04/22 20:56:31;;;;;;;8.65;4.07;;;;;;;12.84;95.18;100867.34;10306409;28;20038;-75
2022/04/22 21:01:34;;;;;;;9.82;3.97;;;;;;;12.69;96.26;100852.38;10306808;28;20043;-75
2022/04/22 21:06:35;;;;;;;9.88;3.72;;;;;;;12.67;95.87;100857.34;10307293;28;20043;-74
2022/04/22 21:11:37;;;;;;;5.15;3.40;;;;;;;12.71;96.19;100863.97;10305405;28;20038;-75
2022/04/22 21:16:37;;;;;;;6.85;3.55;;;;;;;12.70;98.07;100875.28;10305660;28;20053;-74
2022/04/22 21:21:38;;;;;;;14.00;4.50;;;;;;;12.53;97.27;100845.09;10305386;28;20038;-75
2022/04/22 21:26:39;;;;;;;6.80;3.80;;;;;;;12.64;97.66;100868.91;10305146;28;20090;-75
2022/04/22 21:31:39;;;;;;;10.15;4.80;;;;;;;12.51;98.33;100858.34;10305387;28;20038;-73
2022/04/22 21:36:40;;;;;;;8.65;3.92;;;;;;;12.52;98.76;100876.56;10306901;28;20031;-74
2022/04/22 21:41:41;;;;;;;10.23;4.05;;;;;;;12.38;100.00;100880.91;10304247;28;20487;-74
2022/04/22 21:46:41;;;;;;;11.60;4.35;;;;;;;12.19;100.00;100880.50;10305797;28;20042;-74
2022/04/22 21:51:42;;;;;;;6.40;3.95;;;;;;;11.97;100.00;100881.44;10305888;28;20043;-74
2022/04/22 21:56:42;;;;;;;7.10;3.85;;;;;;;11.91;100.00;100888.03;10313154;28;20444;-74
2022/04/22 22:01:43;;;;;;;10.20;4.93;;;;;;;11.68;100.00;100883.66;10338740;28;20035;-73
2022/04/22 22:06:44;;;;;;;9.27;4.45;;;;;;;11.60;100.00;100897.91;10340644;28;20034;-74
2022/04/22 22:11:44;;;;;;;14.20;4.70;;;;;;;11.36;100.00;100891.84;10345532;28;20070;-74
2022/04/22 22:16:45;;;;;;;11.18;5.40;;;;;;;11.23;100.00;100890.34;10345017;28;20050;-74
2022/04/22 22:21:45;;;;;;;7.13;4.78;;;;;;;11.19;100.00;100891.97;10344269;28;20042;-74
2022/04/22 22:26:46;;;;;;;11.40;4.47;;;;;;;11.11;100.00;100905.06;10346081;28;20061;-75
2022/04/22 22:31:47;;;;;;;13.70;5.75;;;;;;;11.03;100.00;100900.03;10352892;28;20081;-73
2022/04/22 22:36:47;;;;;;;8.57;4.90;;;;;;;11.02;100.00;100892.88;10353121;28;20057;-73
2022/04/22 22:41:48;;;;;;;10.82;5.70;;;;;;;10.92;100.00;100881.72;10352672;28;20030;-74
2022/04/22 22:46:48;;;;;;;11.25;6.47;;;;;;;11.01;100.00;100902.19;10352523;28;20023;-74
2022/04/22 22:51:49;;;;;;;12.20;6.35;;;;;;;10.90;100.00;100901.25;10350068;28;20073;-74
2022/04/22 22:56:49;;;;;;;12.98;6.53;;;;;;;10.75;100.00;100890.03;10340294;28;20482;-74
2022/04/22 23:01:50;;;;;;;13.95;6.78;;;;;;;10.80;100.00;100908.56;10327128;28;20031;-74
2022/04/22 23:06:50;;;;;;;12.27;6.53;;;;;;;10.78;100.00;100907.97;10310285;28;20041;-74
2022/04/22 23:11:52;;;;;;;17.48;7.13;;;;;;;10.78;100.00;100908.78;10309753;28;20031;-74
2022/04/22 23:16:52;;;;;;;9.20;5.88;;;;;;;10.66;100.00;100897.88;10314853;28;20046;-74
2022/04/22 23:21:53;;;;;;;9.52;6.15;;;;;;;10.68;100.00;100892.13;10350743;28;20038;-74
2022/04/22 23:26:54;;;;;;;11.30;6.18;;;;;;;10.63;100.00;100905.84;10351167;28;20061;-74
2022/04/22 23:31:55;;;;;;;12.18;6.00;;;;;;;10.64;100.00;100915.75;10350291;28;20038;-74
2022/04/22 23:36:56;;;;;;;12.57;6.15;;;;;;;10.45;100.00;100893.19;10351043;28;20054;-74
2022/04/22 23:42:00;;;;;;;13.95;7.43;;;;;;;10.41;100.00;100892.84;10348382;28;20030;-74
2022/04/22 23:47:00;;;;;;;12.30;6.35;;;;;;;10.06;100.00;100860.09;10349127;28;20045;-73
2022/04/22 23:52:01;;;;;;;13.55;7.47;;;;;;;10.17;100.00;100903.22;10335846;28;20388;-73
2022/04/22 23:57:01;;;;;;;9.90;6.82;;;;;;;10.08;100.00;100896.44;10336955;28;20489;-74
